Terminal Aerodrome Forecast
Issued by NWS

Home | Current Version | Previous Version | Text Only | Print | Product List | Glossary On
Versions: 1 2 3 4 5 6 7 8 9 10 11 12
251
FTUS41 KBTV 220538
TAFMPV
TAF
KMPV 220538Z 2206/2306 19006KT P6SM OVC050
     FM220900 18004KT P6SM OVC030
     FM221200 18004KT P6SM BKN050
     FM230200 VRB03KT 6SM BR BKN040=

USA.gov is the U.S. government's official web portal to all federal, state and local government web resources and services.